Home > Products > Valid Products > TAF

000
FTUS42 KRAH 211123
TAFRDU
TAF
KRDU 211123Z 2112/2212 00000KT 5SM BR OVC026
      TEMPO 2112/2115 OVC030
     FM211600 06006KT P6SM BKN035
     FM220400 04007KT 5SM -RA BR SCT015 OVC050
     FM220900 03009KT 2SM -RA BR OVC008=



000
FTUS42 KRAH 211123
TAFINT
TAF
KINT 211123Z 2112/2212 00000KT 6SM BR OVC025
      TEMPO 2112/2115 OVC035
     FM211800 07006KT P6SM BKN035
     FM220500 05007KT P6SM -RA OVC050
     FM220900 04008KT 3SM -RA BR OVC006=



000
FTUS42 KRAH 211123
TAFRDU
TAF
KRDU 211123Z 2112/2212 00000KT 5SM BR OVC026
      TEMPO 2112/2115 OVC030
     FM211600 06006KT P6SM BKN035
     FM220400 04007KT 5SM -RA BR SCT015 OVC050
     FM220900 03009KT 2SM -RA BR OVC008=



000
FTUS42 KRAH 211123
TAFGSO
TAF
KGSO 211123Z 2112/2212 00000KT 6SM BR OVC025
      TEMPO 2112/2115 OVC035
     FM211800 07006KT P6SM BKN035
     FM220500 05007KT P6SM -RA OVC050
     FM220900 04008KT 3SM -RA BR OVC006=



000
FTUS42 KRAH 211123
TAFRWI
TAF
KRWI 211123Z 2112/2212 00000KT 6SM BR BKN028
      TEMPO 2112/2114 P6SM NSW SCT030
     FM211400 04005KT P6SM SCT035
     FM220400 04008KT P6SM -RA SCT020 OVC060
     FM220800 04009KT 2SM -RA BR OVC006=



000
FTUS42 KRAH 211123
TAFFAY
TAF
KFAY 211123Z 2112/2212 02004KT 6SM BR OVC028
      TEMPO 2112/2114 3SM BR OVC035
     FM211400 04004KT P6SM BKN040
     FM212100 06007KT P6SM OVC060
     FM220100 06008KT 6SM -RA BR SCT020 OVC050
     FM220500 03009KT 3SM -RA BR OVC006=



000
FTUS42 KRAH 211123
TAFRWI
TAF
KRWI 211123Z 2112/2212 00000KT 6SM BR BKN028
      TEMPO 2112/2114 P6SM NSW SCT030
     FM211400 04005KT P6SM SCT035
     FM220400 04008KT P6SM -RA SCT020 OVC060
     FM220800 04009KT 2SM -RA BR OVC006=



000
FTUS42 KRAH 211123
TAFGSO
TAF
KGSO 211123Z 2112/2212 00000KT 6SM BR OVC025
      TEMPO 2112/2115 OVC035
     FM211800 07006KT P6SM BKN035
     FM220500 05007KT P6SM -RA OVC050
     FM220900 04008KT 3SM -RA BR OVC006=



000
FTUS42 KRAH 211123
TAFFAY
TAF
KFAY 211123Z 2112/2212 02004KT 6SM BR OVC028
      TEMPO 2112/2114 3SM BR OVC035
     FM211400 04004KT P6SM BKN040
     FM212100 06007KT P6SM OVC060
     FM220100 06008KT 6SM -RA BR SCT020 OVC050
     FM220500 03009KT 3SM -RA BR OVC006=



000
FTUS42 KRAH 211123
TAFINT
TAF
KINT 211123Z 2112/2212 00000KT 6SM BR OVC025
      TEMPO 2112/2115 OVC035
     FM211800 07006KT P6SM BKN035
     FM220500 05007KT P6SM -RA OVC050
     FM220900 04008KT 3SM -RA BR OVC006=



000
FTUS42 KRAH 210902 AAB
TAFGSO
TAF AMD
KGSO 210902Z 2109/2206 00000KT 6SM BR OVC025
      TEMPO 2109/2112 3SM BR OVC015
     FM211800 07006KT P6SM BKN035
     FM220500 05007KT P6SM -RA OVC050=



000
FTUS42 KRAH 210902 AAB
TAFGSO
TAF AMD
KGSO 210902Z 2109/2206 00000KT 6SM BR OVC025
      TEMPO 2109/2112 3SM BR OVC015
     FM211800 07006KT P6SM BKN035
     FM220500 05007KT P6SM -RA OVC050=



000
FTUS42 KRAH 210902 AAB
TAFINT
TAF AMD
KINT 210902Z 2109/2206 00000KT 6SM BR OVC025
      TEMPO 2110/2112 3SM BR OVC015
     FM211800 07006KT P6SM BKN035
     FM220500 05007KT P6SM -RA OVC050=



000
FTUS42 KRAH 210902 AAB
TAFINT
TAF AMD
KINT 210902Z 2109/2206 00000KT 6SM BR OVC025
      TEMPO 2110/2112 3SM BR OVC015
     FM211800 07006KT P6SM BKN035
     FM220500 05007KT P6SM -RA OVC050=



000
FTUS42 KRAH 210854 AAA
TAFFAY
TAF AMD
KFAY 210854Z 2109/2206 02004KT 6SM BR OVC030
      TEMPO 2109/2112 3SM BR BKN060
     FM211300 04004KT P6SM SCT040
     FM212100 06007KT P6SM OVC060
     FM220100 06008KT 6SM -RA BR SCT020 OVC050=



000
FTUS42 KRAH 210854 AAA
TAFFAY
TAF AMD
KFAY 210854Z 2109/2206 02004KT 6SM BR OVC030
      TEMPO 2109/2112 3SM BR BKN060
     FM211300 04004KT P6SM SCT040
     FM212100 06007KT P6SM OVC060
     FM220100 06008KT 6SM -RA BR SCT020 OVC050=



000
FTUS42 KRAH 210852 AAA
TAFRWI
TAF AMD
KRWI 210852Z 2109/2206 00000KT 6SM BR BKN035
     FM211000 00000KT 5SM BR BKN045
      TEMPO 2110/2112 2SM BR OVC015
     FM211300 04005KT P6SM FEW040
     FM220500 04008KT P6SM -RA SCT020 OVC060=



000
FTUS42 KRAH 210852 AAA
TAFRWI
TAF AMD
KRWI 210852Z 2109/2206 00000KT 6SM BR BKN035
     FM211000 00000KT 5SM BR BKN045
      TEMPO 2110/2112 2SM BR OVC015
     FM211300 04005KT P6SM FEW040
     FM220500 04008KT P6SM -RA SCT020 OVC060=



000
FTUS42 KRAH 210851 AAA
TAFRDU
TAF AMD
KRDU 210851Z 2109/2206 00000KT 5SM BR OVC030
      TEMPO 2109/2112 OVC024
     FM211400 06006KT P6SM SCT035
     FM220400 04007KT 5SM -RA BR SCT015 OVC050=



000
FTUS42 KRAH 210850 AAA
TAFINT
TAF AMD
KINT 210850Z 2109/2206 00000KT 6SM BR OVC025
      TEMPO 2110/2112 3SM BR OVC015
     FM211800 07006KT P6SM SCT035
     FM220500 05007KT P6SM -RA OVC050=



000
FTUS42 KRAH 210850 AAA
TAFINT
TAF AMD
KINT 210850Z 2109/2206 00000KT 6SM BR OVC025
      TEMPO 2110/2112 3SM BR OVC015
     FM211800 07006KT P6SM SCT035
     FM220500 05007KT P6SM -RA OVC050=



000
FTUS42 KRAH 210850 AAA
TAFGSO
TAF AMD
KGSO 210850Z 2109/2206 00000KT 6SM BR OVC025
      TEMPO 2110/2112 3SM BR OVC015
     FM211800 07006KT P6SM SCT035
     FM220500 05007KT P6SM -RA OVC050=



000
FTUS42 KRAH 210850 AAA
TAFGSO
TAF AMD
KGSO 210850Z 2109/2206 00000KT 6SM BR OVC025
      TEMPO 2110/2112 3SM BR OVC015
     FM211800 07006KT P6SM SCT035
     FM220500 05007KT P6SM -RA OVC050=



000
FTUS42 KRAH 210532
TAFRWI
TAF
KRWI 210532Z 2106/2206 00000KT 3SM BR BKN035
      TEMPO 2106/2109 2SM BR SCT035
     FM210900 00000KT 5SM BR BKN045
      TEMPO 2109/2112 1SM BR OVC015
     FM211300 04005KT P6SM FEW040
     FM220500 04008KT P6SM -RA SCT020 OVC060=



000
FTUS42 KRAH 210532
TAFFAY
TAF
KFAY 210532Z 2106/2206 02004KT 4SM BR SCT030 BKN050
      TEMPO 2106/2109 BKN030
     FM210900 03004KT 6SM BR SCT040
      TEMPO 2109/2112 1SM BR OVC012
     FM211300 04004KT P6SM FEW040
     FM212100 06007KT P6SM OVC060
     FM220100 06008KT 6SM -RA BR SCT020 OVC050=



000
FTUS42 KRAH 210532
TAFRDU
TAF
KRDU 210532Z 2106/2206 00000KT 5SM BR OVC030
      TEMPO 2106/2109 BKN035
     FM210900 00000KT 5SM BR SCT035
      TEMPO 2109/2112 1/2SM FG BKN006
     FM211400 06006KT P6SM SCT035
     FM220400 04007KT 5SM -RA BR SCT015 OVC050=



000
FTUS42 KRAH 210532
TAFGSO
TAF
KGSO 210532Z 2106/2206 00000KT P6SM OVC025
     FM210800 00000KT 6SM BR BKN035
      TEMPO 2109/2112 1SM BR BKN015
     FM211800 07006KT P6SM SCT035
     FM220500 05007KT P6SM -RA OVC050=



000
FTUS42 KRAH 210532
TAFRDU
TAF
KRDU 210532Z 2106/2206 00000KT 5SM BR OVC030
      TEMPO 2106/2109 BKN035
     FM210900 00000KT 5SM BR SCT035
      TEMPO 2109/2112 1/2SM FG BKN006
     FM211400 06006KT P6SM SCT035
     FM220400 04007KT 5SM -RA BR SCT015 OVC050=



000
FTUS42 KRAH 210532
TAFGSO
TAF
KGSO 210532Z 2106/2206 00000KT P6SM OVC025
     FM210800 00000KT 6SM BR BKN035
      TEMPO 2109/2112 1SM BR BKN015
     FM211800 07006KT P6SM SCT035
     FM220500 05007KT P6SM -RA OVC050=



000
FTUS42 KRAH 210532
TAFFAY
TAF
KFAY 210532Z 2106/2206 02004KT 4SM BR SCT030 BKN050
      TEMPO 2106/2109 BKN030
     FM210900 03004KT 6SM BR SCT040
      TEMPO 2109/2112 1SM BR OVC012
     FM211300 04004KT P6SM FEW040
     FM212100 06007KT P6SM OVC060
     FM220100 06008KT 6SM -RA BR SCT020 OVC050=



000
FTUS42 KRAH 210532
TAFINT
TAF
KINT 210532Z 2106/2206 00000KT P6SM OVC025
     FM210800 00000KT 6SM BR BKN035
      TEMPO 2109/2112 1SM BR BKN015
     FM211800 07006KT P6SM SCT035
     FM220500 05007KT P6SM -RA OVC050=



000
FTUS42 KRAH 210532
TAFRWI
TAF
KRWI 210532Z 2106/2206 00000KT 3SM BR BKN035
      TEMPO 2106/2109 2SM BR SCT035
     FM210900 00000KT 5SM BR BKN045
      TEMPO 2109/2112 1SM BR OVC015
     FM211300 04005KT P6SM FEW040
     FM220500 04008KT P6SM -RA SCT020 OVC060=



000
FTUS42 KRAH 210532
TAFINT
TAF
KINT 210532Z 2106/2206 00000KT P6SM OVC025
     FM210800 00000KT 6SM BR BKN035
      TEMPO 2109/2112 1SM BR BKN015
     FM211800 07006KT P6SM SCT035
     FM220500 05007KT P6SM -RA OVC050=



000
FTUS42 KRAH 210213 AAA
TAFRWI
TAF AMD
KRWI 210213Z 2102/2124 VRB03KT P6SM OVC050
      TEMPO 2104/2108 5SM BR OVC035
     FM210800 00000KT 5SM BR OVC025
      TEMPO 2109/2112 1SM BR OVC015
     FM211400 04005KT P6SM BKN050=



000
FTUS42 KRAH 210213 AAA
TAFRWI
TAF AMD
KRWI 210213Z 2102/2124 VRB03KT P6SM OVC050
      TEMPO 2104/2108 5SM BR OVC035
     FM210800 00000KT 5SM BR OVC025
      TEMPO 2109/2112 1SM BR OVC015
     FM211400 04005KT P6SM BKN050=



000
FTUS42 KRAH 210211 AAA
TAFFAY
TAF AMD
KFAY 210211Z 2102/2124 03004KT P6SM OVC035
      TEMPO 2102/2106 5SM BR OVC025
     FM210600 02004KT 4SM BR OVC025
      TEMPO 2109/2112 1SM BR OVC012
     FM211300 04004KT P6SM BKN050=



000
FTUS42 KRAH 210211 AAA
TAFFAY
TAF AMD
KFAY 210211Z 2102/2124 03004KT P6SM OVC035
      TEMPO 2102/2106 5SM BR OVC025
     FM210600 02004KT 4SM BR OVC025
      TEMPO 2109/2112 1SM BR OVC012
     FM211300 04004KT P6SM BKN050=



000
FTUS42 KRAH 210210 AAA
TAFGSO
TAF AMD
KGSO 210210Z 2102/2124 VRB03KT P6SM OVC025
      TEMPO 2102/2106 6SM BR OVC035
     FM210600 00000KT 5SM BR OVC025
      TEMPO 2109/2112 1SM BR BKN012
     FM211400 06004KT P6SM BKN040=



000
FTUS42 KRAH 210210 AAA
TAFGSO
TAF AMD
KGSO 210210Z 2102/2124 VRB03KT P6SM OVC025
      TEMPO 2102/2106 6SM BR OVC035
     FM210600 00000KT 5SM BR OVC025
      TEMPO 2109/2112 1SM BR BKN012
     FM211400 06004KT P6SM BKN040=



000
FTUS42 KRAH 210118 AAA
TAFRDU
TAF AMD
KRDU 210118Z 2101/2124 VRB03KT 5SM BR SCT008 OVC035
     FM210600 00000KT 4SM BR OVC025
      TEMPO 2109/2112 1/2SM FG BKN012
     FM211400 06004KT P6SM BKN035=



000
FTUS42 KRAH 210118 AAA
TAFRDU
TAF AMD
KRDU 210118Z 2101/2124 VRB03KT 5SM BR SCT008 OVC035
     FM210600 00000KT 4SM BR OVC025
      TEMPO 2109/2112 1/2SM FG BKN012
     FM211400 06004KT P6SM BKN035=



000
FTUS42 KRAH 210118 AAA
TAFRDU
TAF AMD
KRDU 210118Z 2101/2124 VRB03KT 5SM BR SCT008 OVC035
     FM210600 00000KT 4SM BR OVC025
      TEMPO 2109/2112 1/2SM FG BKN012
     FM211400 06004KT P6SM BKN035=



000
FTUS42 KRAH 210118 AAA
TAFRDU
TAF AMD
KRDU 210118Z 2101/2124 VRB03KT 5SM BR SCT008 OVC035
     FM210600 00000KT 4SM BR OVC025
      TEMPO 2109/2112 1/2SM FG BKN012
     FM211400 06004KT P6SM BKN035=



000
FTUS42 KRAH 210107 AAA
TAFINT
TAF AMD
KINT 210107Z 2101/2124 VRB03KT P6SM BKN025 OVC050
      TEMPO 2102/2106 SCT025 OVC050
     FM210600 00000KT 6SM BR BKN035
      TEMPO 2109/2112 1SM BR BKN015
     FM211400 06004KT P6SM BKN040=



000
FTUS42 KRAH 210107 AAA
TAFINT
TAF AMD
KINT 210107Z 2101/2124 VRB03KT P6SM BKN025 OVC050
      TEMPO 2102/2106 SCT025 OVC050
     FM210600 00000KT 6SM BR BKN035
      TEMPO 2109/2112 1SM BR BKN015
     FM211400 06004KT P6SM BKN040=



000
FTUS42 KRAH 210107 AAA
TAFINT
TAF AMD
KINT 210107Z 2101/2124 VRB03KT P6SM BKN025 OVC050
      TEMPO 2102/2106 SCT025 OVC050
     FM210600 00000KT 6SM BR BKN035
      TEMPO 2109/2112 1SM BR BKN015
     FM211400 06004KT P6SM BKN040=



000
FTUS42 KRAH 210107 AAA
TAFINT
TAF AMD
KINT 210107Z 2101/2124 VRB03KT P6SM BKN025 OVC050
      TEMPO 2102/2106 SCT025 OVC050
     FM210600 00000KT 6SM BR BKN035
      TEMPO 2109/2112 1SM BR BKN015
     FM211400 06004KT P6SM BKN040=



000
FTUS42 KRAH 202331
TAFRDU
TAF
KRDU 202331Z 2100/2124 VRB03KT 5SM BR OVC008
      TEMPO 2102/2106 P6SM NSW SCT008 OVC035
     FM210600 00000KT 4SM BR BKN035
      TEMPO 2109/2112 1/2SM FG BKN012
     FM211400 06004KT P6SM BKN035=



000
FTUS42 KRAH 202331
TAFRWI
TAF
KRWI 202331Z 2100/2124 VRB03KT P6SM SCT008 OVC060
      TEMPO 2102/2104 5SM BR BKN008
     FM210600 00000KT 6SM BR FEW008 BKN050
      TEMPO 2109/2112 1SM BR BKN008
     FM211300 04005KT P6SM BKN050=



000
FTUS42 KRAH 202331
TAFINT
TAF
KINT 202331Z 2100/2124 VRB03KT P6SM SCT025 BKN040
      TEMPO 2102/2106 BKN025
     FM210600 00000KT 6SM BR BKN035
      TEMPO 2109/2112 1SM BR BKN015
     FM211400 06004KT P6SM BKN040=



000
FTUS42 KRAH 202331
TAFGSO
TAF
KGSO 202331Z 2100/2124 VRB03KT P6SM SCT025 BKN040
      TEMPO 2102/2106 BKN025
     FM210600 00000KT 5SM BR BKN035
      TEMPO 2109/2112 1SM BR BKN012
     FM211400 06004KT P6SM BKN040=



000
FTUS42 KRAH 202331
TAFFAY
TAF
KFAY 202331Z 2100/2124 03004KT P6SM SCT008 OVC060
      TEMPO 2100/2104 5SM BR BKN008
     FM210400 02004KT 5SM BR SCT015 BKN050
      TEMPO 2109/2112 1SM BR BKN012
     FM211300 04004KT P6SM BKN050=



000
FTUS42 KRAH 202331
TAFRWI
TAF
KRWI 202331Z 2100/2124 VRB03KT P6SM SCT008 OVC060
      TEMPO 2102/2104 5SM BR BKN008
     FM210600 00000KT 6SM BR FEW008 BKN050
      TEMPO 2109/2112 1SM BR BKN008
     FM211300 04005KT P6SM BKN050=



000
FTUS42 KRAH 202331
TAFRDU
TAF
KRDU 202331Z 2100/2124 VRB03KT 5SM BR OVC008
      TEMPO 2102/2106 P6SM NSW SCT008 OVC035
     FM210600 00000KT 4SM BR BKN035
      TEMPO 2109/2112 1/2SM FG BKN012
     FM211400 06004KT P6SM BKN035=



000
FTUS42 KRAH 202331
TAFFAY
TAF
KFAY 202331Z 2100/2124 03004KT P6SM SCT008 OVC060
      TEMPO 2100/2104 5SM BR BKN008
     FM210400 02004KT 5SM BR SCT015 BKN050
      TEMPO 2109/2112 1SM BR BKN012
     FM211300 04004KT P6SM BKN050=



000
FTUS42 KRAH 202331
TAFGSO
TAF
KGSO 202331Z 2100/2124 VRB03KT P6SM SCT025 BKN040
      TEMPO 2102/2106 BKN025
     FM210600 00000KT 5SM BR BKN035
      TEMPO 2109/2112 1SM BR BKN012
     FM211400 06004KT P6SM BKN040=



000
FTUS42 KRAH 202331
TAFINT
TAF
KINT 202331Z 2100/2124 VRB03KT P6SM SCT025 BKN040
      TEMPO 2102/2106 BKN025
     FM210600 00000KT 6SM BR BKN035
      TEMPO 2109/2112 1SM BR BKN015
     FM211400 06004KT P6SM BKN040=



000
FTUS42 KRAH 202136 AAB
TAFRDU
TAF AMD
KRDU 202136Z 2022/2118 03005KT 4SM BR OVC007
      TEMPO 2022/2024 P6SM NSW BKN015 OVC040
     FM210000 04003KT P6SM SCT015 BKN050
      TEMPO 2109/2112 1/2SM FG
     FM211400 04003KT P6SM OVC050=



000
FTUS42 KRAH 201914 AAA
TAFRDU
TAF AMD
KRDU 201914Z 2019/2118 03005KT P6SM SCT008 OVC060
      TEMPO 2019/2021 5SM BR BKN007
     FM210300 04003KT P6SM BKN050
      TEMPO 2109/2112 1/2SM FG
     FM211400 04003KT P6SM OVC050=



000
FTUS42 KRAH 201914 AAA
TAFRDU
TAF AMD
KRDU 201914Z 2019/2118 03005KT P6SM SCT008 OVC060
      TEMPO 2019/2021 5SM BR BKN007
     FM210300 04003KT P6SM BKN050
      TEMPO 2109/2112 1/2SM FG
     FM211400 04003KT P6SM OVC050=



000
FTUS42 KRAH 201914 AAA
TAFFAY
TAF AMD
KFAY 201914Z 2019/2118 03005KT P6SM -RA SCT008 OVC060
      TEMPO 2019/2021 BKN005
     FM202200 03005KT P6SM BKN040
     FM210600 02004KT 5SM BR BKN070
     FM211300 04004KT P6SM BKN050=



000
FTUS42 KRAH 201914 AAA
TAFFAY
TAF AMD
KFAY 201914Z 2019/2118 03005KT P6SM -RA SCT008 OVC060
      TEMPO 2019/2021 BKN005
     FM202200 03005KT P6SM BKN040
     FM210600 02004KT 5SM BR BKN070
     FM211300 04004KT P6SM BKN050=



000
FTUS42 KRAH 201727
TAFFAY
TAF
KFAY 201727Z 2018/2118 03005KT P6SM -RA SCT008 OVC060
      TEMPO 2018/2021 BKN008
     FM202200 03005KT P6SM BKN040
     FM210600 02004KT 5SM BR BKN070
     FM211300 04004KT P6SM BKN050=



000
FTUS42 KRAH 201727
TAFGSO
TAF
KGSO 201727Z 2018/2118 04005KT P6SM OVC060
     FM202200 08005KT P6SM BKN050
     FM210300 00000KT 5SM BR BKN050
      TEMPO 2109/2112 1/2SM FG
     FM211400 06003KT P6SM OVC040=



000
FTUS42 KRAH 201727
TAFRDU
TAF
KRDU 201727Z 2018/2118 03005KT P6SM SCT008 OVC060
      TEMPO 2018/2021 5SM BR BKN025
     FM210300 04003KT P6SM BKN050
      TEMPO 2109/2112 1/2SM FG
     FM211400 04003KT P6SM OVC050=



000
FTUS42 KRAH 201727
TAFRWI
TAF
KRWI 201727Z 2018/2118 03005KT P6SM -RA SCT018 OVC080
     FM202100 05006KT P6SM SCT050
     FM211200 02005KT P6SM BKN050=



000
FTUS42 KRAH 201727
TAFINT
TAF
KINT 201727Z 2018/2118 03005KT P6SM OVC060
     FM202200 08005KT P6SM BKN060
     FM210300 00000KT 5SM BR BKN050
      TEMPO 2109/2112 1/2SM FG
     FM211400 06003KT P6SM OVC040=



000
FTUS42 KRAH 201727
TAFRWI
TAF
KRWI 201727Z 2018/2118 03005KT P6SM -RA SCT018 OVC080
     FM202100 05006KT P6SM SCT050
     FM211200 02005KT P6SM BKN050=



000
FTUS42 KRAH 201727
TAFFAY
TAF
KFAY 201727Z 2018/2118 03005KT P6SM -RA SCT008 OVC060
      TEMPO 2018/2021 BKN008
     FM202200 03005KT P6SM BKN040
     FM210600 02004KT 5SM BR BKN070
     FM211300 04004KT P6SM BKN050=



000
FTUS42 KRAH 201727
TAFGSO
TAF
KGSO 201727Z 2018/2118 04005KT P6SM OVC060
     FM202200 08005KT P6SM BKN050
     FM210300 00000KT 5SM BR BKN050
      TEMPO 2109/2112 1/2SM FG
     FM211400 06003KT P6SM OVC040=



000
FTUS42 KRAH 201727
TAFRDU
TAF
KRDU 201727Z 2018/2118 03005KT P6SM SCT008 OVC060
      TEMPO 2018/2021 5SM BR BKN025
     FM210300 04003KT P6SM BKN050
      TEMPO 2109/2112 1/2SM FG
     FM211400 04003KT P6SM OVC050=



000
FTUS42 KRAH 201727
TAFINT
TAF
KINT 201727Z 2018/2118 03005KT P6SM OVC060
     FM202200 08005KT P6SM BKN060
     FM210300 00000KT 5SM BR BKN050
      TEMPO 2109/2112 1/2SM FG
     FM211400 06003KT P6SM OVC040=



000
FTUS42 KRAH 201403 AAA
TAFGSO
TAF AMD
KGSO 201403Z 2014/2112 06008KT P6SM SCT045 OVC060
      TEMPO 2014/2016 5SM -SN
     FM201600 06008KT P6SM SCT025 OVC040
     FM202200 08005KT P6SM SCT024 SCT050
     FM210300 00000KT 5SM BR SCT008=



000
FTUS42 KRAH 201403 AAA
TAFINT
TAF AMD
KINT 201403Z 2014/2112 06008KT P6SM SCT045 OVC060
      TEMPO 2014/2016 5SM -SN
     FM201600 06008KT P6SM SCT025 OVC040
     FM202200 08005KT P6SM SCT024 SCT050
     FM210300 00000KT 5SM BR SCT008=



000
FTUS42 KRAH 201403 AAA
TAFINT
TAF AMD
KINT 201403Z 2014/2112 06008KT P6SM SCT045 OVC060
      TEMPO 2014/2016 5SM -SN
     FM201600 06008KT P6SM SCT025 OVC040
     FM202200 08005KT P6SM SCT024 SCT050
     FM210300 00000KT 5SM BR SCT008=



000
FTUS42 KRAH 201403 AAA
TAFGSO
TAF AMD
KGSO 201403Z 2014/2112 06008KT P6SM SCT045 OVC060
      TEMPO 2014/2016 5SM -SN
     FM201600 06008KT P6SM SCT025 OVC040
     FM202200 08005KT P6SM SCT024 SCT050
     FM210300 00000KT 5SM BR SCT008=



000
FTUS42 KRAH 201349 AAA
TAFRDU
TAF AMD
KRDU 201349Z 2014/2112 06006KT P6SM OVC090
      TEMPO 2014/2015 2SM -SN
     FM201500 05007KT P6SM -RA SCT025 OVC060
     FM201800 06006KT P6SM SCT015 OVC060
      TEMPO 2018/2021 BKN018
     FM210300 04003KT P6SM FEW050=



000
FTUS42 KRAH 201349 AAA
TAFRDU
TAF AMD
KRDU 201349Z 2014/2112 06006KT P6SM OVC090
      TEMPO 2014/2015 2SM -SN
     FM201500 05007KT P6SM -RA SCT025 OVC060
     FM201800 06006KT P6SM SCT015 OVC060
      TEMPO 2018/2021 BKN018
     FM210300 04003KT P6SM FEW050=



000
FTUS42 KRAH 201134
TAFRDU
TAF
KRDU 201134Z 2012/2112 06006KT P6SM OVC090
      TEMPO 2012/2015 -RA
     FM201500 05007KT P6SM -RA SCT025 OVC060
     FM201800 06006KT P6SM SCT015 OVC060
      TEMPO 2018/2021 BKN018
     FM210300 04003KT P6SM FEW050=



000
FTUS42 KRAH 201134
TAFINT
TAF
KINT 201134Z 2012/2112 06008KT P6SM SCT045 OVC060
      TEMPO 2012/2016 -RA
     FM201600 06008KT P6SM SCT025 OVC040
     FM202200 08005KT P6SM SCT024 SCT050
     FM210300 00000KT 5SM BR SCT008=



000
FTUS42 KRAH 201134
TAFRWI
TAF
KRWI 201134Z 2012/2112 05007KT P6SM OVC120
     FM201400 03009KT P6SM -RA SCT018 OVC080
     FM201900 05006KT P6SM OVC070
     FM210300 04004KT P6SM FEW060=



000
FTUS42 KRAH 201134
TAFGSO
TAF
KGSO 201134Z 2012/2112 06008KT P6SM SCT045 OVC060
      TEMPO 2012/2016 -RA
     FM201600 06008KT P6SM SCT025 OVC040
     FM202200 08005KT P6SM SCT024 SCT050
     FM210300 00000KT 5SM BR SCT008=



000
FTUS42 KRAH 201134
TAFFAY
TAF
KFAY 201134Z 2012/2112 06006KT P6SM OVC100
     FM201400 06009KT P6SM -RA SCT018 OVC070
      TEMPO 2015/2018 4SM -RA BR OVC040
     FM202200 05008KT 6SM BR SCT016 OVC060
     FM210300 03005KT P6SM FEW040=



000
FTUS42 KRAH 201134
TAFFAY
TAF
KFAY 201134Z 2012/2112 06006KT P6SM OVC100
     FM201400 06009KT P6SM -RA SCT018 OVC070
      TEMPO 2015/2018 4SM -RA BR OVC040
     FM202200 05008KT 6SM BR SCT016 OVC060
     FM210300 03005KT P6SM FEW040=



000
FTUS42 KRAH 201134
TAFINT
TAF
KINT 201134Z 2012/2112 06008KT P6SM SCT045 OVC060
      TEMPO 2012/2016 -RA
     FM201600 06008KT P6SM SCT025 OVC040
     FM202200 08005KT P6SM SCT024 SCT050
     FM210300 00000KT 5SM BR SCT008=



000
FTUS42 KRAH 201134
TAFRWI
TAF
KRWI 201134Z 2012/2112 05007KT P6SM OVC120
     FM201400 03009KT P6SM -RA SCT018 OVC080
     FM201900 05006KT P6SM OVC070
     FM210300 04004KT P6SM FEW060=



000
FTUS42 KRAH 201134
TAFRDU
TAF
KRDU 201134Z 2012/2112 06006KT P6SM OVC090
      TEMPO 2012/2015 -RA
     FM201500 05007KT P6SM -RA SCT025 OVC060
     FM201800 06006KT P6SM SCT015 OVC060
      TEMPO 2018/2021 BKN018
     FM210300 04003KT P6SM FEW050=



000
FTUS42 KRAH 201134
TAFGSO
TAF
KGSO 201134Z 2012/2112 06008KT P6SM SCT045 OVC060
      TEMPO 2012/2016 -RA
     FM201600 06008KT P6SM SCT025 OVC040
     FM202200 08005KT P6SM SCT024 SCT050
     FM210300 00000KT 5SM BR SCT008=



000
FTUS42 KRAH 200846 AAA
TAFRDU
TAF AMD
KRDU 200846Z 2009/2106 05006KT P6SM OVC120
     FM201000 06006KT P6SM OVC090
     FM201500 05007KT P6SM SCT025 OVC050
      TEMPO 2018/2022 BKN018=



000
FTUS42 KRAH 200846 AAA
TAFRDU
TAF AMD
KRDU 200846Z 2009/2106 05006KT P6SM OVC120
     FM201000 06006KT P6SM OVC090
     FM201500 05007KT P6SM SCT025 OVC050
      TEMPO 2018/2022 BKN018=



000
FTUS42 KRAH 200845 AAA
TAFGSO
TAF AMD
KGSO 200845Z 2009/2106 06006KT P6SM BKN120
     FM201100 06008KT P6SM SCT045 OVC080
      TEMPO 2011/2014 -RA
     FM201400 06008KT P6SM SCT025 OVC040
     FM202100 08005KT P6SM SCT024=



000
FTUS42 KRAH 200845 AAA
TAFGSO
TAF AMD
KGSO 200845Z 2009/2106 06006KT P6SM BKN120
     FM201100 06008KT P6SM SCT045 OVC080
      TEMPO 2011/2014 -RA
     FM201400 06008KT P6SM SCT025 OVC040
     FM202100 08005KT P6SM SCT024=



000
FTUS42 KRAH 200528
TAFINT
TAF
KINT 200528Z 2006/2106 06006KT P6SM BKN120
     FM201100 06008KT P6SM SCT045 OVC080
      TEMPO 2011/2014 -RA
     FM201400 06008KT P6SM SCT025 OVC040
     FM202100 08005KT P6SM SCT024=



000
FTUS42 KRAH 200528
TAFRWI
TAF
KRWI 200528Z 2006/2106 VRB03KT P6SM OVC250
     FM201200 05007KT P6SM OVC120
     FM201600 03009KT P6SM SCT018 OVC080=



000
FTUS42 KRAH 200528
TAFRDU
TAF
KRDU 200528Z 2006/2106 VRB03KT P6SM BKN250
     FM201000 06006KT P6SM OVC090
     FM201500 05007KT P6SM SCT025 OVC050
      TEMPO 2018/2022 BKN018=



000
FTUS42 KRAH 200528
TAFFAY
TAF
KFAY 200528Z 2006/2106 03003KT P6SM OVC250
     FM201000 06006KT P6SM OVC100
     FM201400 06009KT P6SM -RA SCT018 OVC070
      TEMPO 2015/2018 4SM -RA BR OVC020
     FM201900 05008KT 6SM BR OVC018=



000
FTUS42 KRAH 200528
TAFGSO
TAF
KGSO 200528Z 2006/2106 06006KT P6SM BKN120
     FM201100 06008KT P6SM SCT045 OVC080
      TEMPO 2011/2014 -RA
     FM201400 06008KT P6SM SCT025 OVC040
     FM202100 08005KT P6SM SCT024=



000
FTUS42 KRAH 200528
TAFRDU
TAF
KRDU 200528Z 2006/2106 VRB03KT P6SM BKN250
     FM201000 06006KT P6SM OVC090
     FM201500 05007KT P6SM SCT025 OVC050
      TEMPO 2018/2022 BKN018=



000
FTUS42 KRAH 200528
TAFINT
TAF
KINT 200528Z 2006/2106 06006KT P6SM BKN120
     FM201100 06008KT P6SM SCT045 OVC080
      TEMPO 2011/2014 -RA
     FM201400 06008KT P6SM SCT025 OVC040
     FM202100 08005KT P6SM SCT024=



000
FTUS42 KRAH 200528
TAFRWI
TAF
KRWI 200528Z 2006/2106 VRB03KT P6SM OVC250
     FM201200 05007KT P6SM OVC120
     FM201600 03009KT P6SM SCT018 OVC080=



000
FTUS42 KRAH 200528
TAFGSO
TAF
KGSO 200528Z 2006/2106 06006KT P6SM BKN120
     FM201100 06008KT P6SM SCT045 OVC080
      TEMPO 2011/2014 -RA
     FM201400 06008KT P6SM SCT025 OVC040
     FM202100 08005KT P6SM SCT024=



000
FTUS42 KRAH 200528
TAFFAY
TAF
KFAY 200528Z 2006/2106 03003KT P6SM OVC250
     FM201000 06006KT P6SM OVC100
     FM201400 06009KT P6SM -RA SCT018 OVC070
      TEMPO 2015/2018 4SM -RA BR OVC020
     FM201900 05008KT 6SM BR OVC018=



000
FTUS42 KRAH 192331
TAFGSO
TAF
KGSO 192331Z 2000/2024 VRB03KT P6SM OVC250
     FM200900 08003KT P6SM OVC120
     FM201400 04005KT P6SM SCT025 OVC040=



000
FTUS42 KRAH 192331
TAFRWI
TAF
KRWI 192331Z 2000/2024 VRB03KT P6SM OVC250
     FM201200 06003KT P6SM OVC120
     FM201600 06005KT P6SM SCT025 OVC050=



000
FTUS42 KRAH 192331
TAFRDU
TAF
KRDU 192331Z 2000/2024 VRB03KT P6SM OVC250
     FM201000 06003KT P6SM OVC120
     FM201500 06005KT P6SM SCT025 OVC050=



000
FTUS42 KRAH 192331
TAFRWI
TAF
KRWI 192331Z 2000/2024 VRB03KT P6SM OVC250
     FM201200 06003KT P6SM OVC120
     FM201600 06005KT P6SM SCT025 OVC050=



000
FTUS42 KRAH 192331
TAFINT
TAF
KINT 192331Z 2000/2024 VRB03KT P6SM OVC250
     FM200900 08003KT P6SM OVC120
     FM201400 04005KT P6SM SCT025 OVC040=



000
FTUS42 KRAH 192331
TAFFAY
TAF
KFAY 192331Z 2000/2024 03003KT P6SM OVC250
     FM201000 06006KT P6SM OVC120
     FM201600 07006KT P6SM OVC050
      TEMPO 2016/2020 4SM -RA BR OVC030=



000
FTUS42 KRAH 192331
TAFGSO
TAF
KGSO 192331Z 2000/2024 VRB03KT P6SM OVC250
     FM200900 08003KT P6SM OVC120
     FM201400 04005KT P6SM SCT025 OVC040=



000
FTUS42 KRAH 192331
TAFFAY
TAF
KFAY 192331Z 2000/2024 03003KT P6SM OVC250
     FM201000 06006KT P6SM OVC120
     FM201600 07006KT P6SM OVC050
      TEMPO 2016/2020 4SM -RA BR OVC030=



000
FTUS42 KRAH 192331
TAFRDU
TAF
KRDU 192331Z 2000/2024 VRB03KT P6SM OVC250
     FM201000 06003KT P6SM OVC120
     FM201500 06005KT P6SM SCT025 OVC050=



000
FTUS42 KRAH 192331
TAFINT
TAF
KINT 192331Z 2000/2024 VRB03KT P6SM OVC250
     FM200900 08003KT P6SM OVC120
     FM201400 04005KT P6SM SCT025 OVC040=



000
FTUS42 KRAH 191733
TAFFAY
TAF
KFAY 191733Z 1918/2018 01004KT P6SM SKC
     FM200900 06006KT P6SM OVC100
     FM201730 07006KT P6SM OVC040=



000
FTUS42 KRAH 191733
TAFINT
TAF
KINT 191733Z 1918/2018 33008KT P6SM SKC
     FM200400 08003KT P6SM OVC120
     FM201300 06005KT P6SM OVC080=



000
FTUS42 KRAH 191733
TAFRWI
TAF
KRWI 191733Z 1918/2018 36006KT P6SM SKC
     FM201200 07005KT P6SM BKN100=



000
FTUS42 KRAH 191733
TAFGSO
TAF
KGSO 191733Z 1918/2018 33008KT P6SM SKC
     FM200400 08003KT P6SM OVC120
     FM201300 06005KT P6SM OVC080=



000
FTUS42 KRAH 191733
TAFRDU
TAF
KRDU 191733Z 1918/2018 34007KT P6SM SKC
     FM200900 05004KT P6SM BKN100
     FM201500 04004KT P6SM OVC050=



000
FTUS42 KRAH 191733
TAFFAY
TAF
KFAY 191733Z 1918/2018 01004KT P6SM SKC
     FM200900 06006KT P6SM OVC100
     FM201730 07006KT P6SM OVC040=



000
FTUS42 KRAH 191733
TAFGSO
TAF
KGSO 191733Z 1918/2018 33008KT P6SM SKC
     FM200400 08003KT P6SM OVC120
     FM201300 06005KT P6SM OVC080=



000
FTUS42 KRAH 191733
TAFINT
TAF
KINT 191733Z 1918/2018 33008KT P6SM SKC
     FM200400 08003KT P6SM OVC120
     FM201300 06005KT P6SM OVC080=



000
FTUS42 KRAH 191733
TAFRWI
TAF
KRWI 191733Z 1918/2018 36006KT P6SM SKC
     FM201200 07005KT P6SM BKN100=



000
FTUS42 KRAH 191733
TAFRDU
TAF
KRDU 191733Z 1918/2018 34007KT P6SM SKC
     FM200900 05004KT P6SM BKN100
     FM201500 04004KT P6SM OVC050=



000
FTUS42 KRAH 191130
TAFGSO
TAF
KGSO 191130Z 1912/2012 34006KT P6SM SCT250
     FM200400 08003KT P6SM OVC120
     FM201000 09003KT P6SM OVC070=



000
FTUS42 KRAH 191130
TAFFAY
TAF
KFAY 191130Z 1912/2012 VRB02KT P6SM OVC070
     FM191300 01004KT P6SM FEW060
     FM200400 07003KT P6SM OVC150=



000
FTUS42 KRAH 191130
TAFINT
TAF
KINT 191130Z 1912/2012 34006KT P6SM SCT250
     FM200400 08003KT P6SM OVC120
     FM201000 09003KT P6SM OVC070=



000
FTUS42 KRAH 191130
TAFRDU
TAF
KRDU 191130Z 1912/2012 VRB02KT P6SM BKN070
     FM191300 34005KT P6SM FEW050
     FM200500 04003KT P6SM BKN180=



000
FTUS42 KRAH 191130
TAFRWI
TAF
KRWI 191130Z 1912/2012 VRB02KT P6SM OVC070
     FM191400 03005KT P6SM FEW060
     FM200500 03003KT P6SM BKN150=



000
FTUS42 KRAH 191130
TAFRWI
TAF
KRWI 191130Z 1912/2012 VRB02KT P6SM OVC070
     FM191400 03005KT P6SM FEW060
     FM200500 03003KT P6SM BKN150=



000
FTUS42 KRAH 191130
TAFGSO
TAF
KGSO 191130Z 1912/2012 34006KT P6SM SCT250
     FM200400 08003KT P6SM OVC120
     FM201000 09003KT P6SM OVC070=



000
FTUS42 KRAH 191130
TAFFAY
TAF
KFAY 191130Z 1912/2012 VRB02KT P6SM OVC070
     FM191300 01004KT P6SM FEW060
     FM200400 07003KT P6SM OVC150=



000
FTUS42 KRAH 191130
TAFRDU
TAF
KRDU 191130Z 1912/2012 VRB02KT P6SM BKN070
     FM191300 34005KT P6SM FEW050
     FM200500 04003KT P6SM BKN180=



000
FTUS42 KRAH 191130
TAFINT
TAF
KINT 191130Z 1912/2012 34006KT P6SM SCT250
     FM200400 08003KT P6SM OVC120
     FM201000 09003KT P6SM OVC070=



000
FTUS42 KRAH 190846 AAA
TAFRDU
TAF AMD
KRDU 190846Z 1909/2006 VRB02KT P6SM BKN070
     FM191300 34005KT P6SM FEW050
     FM200500 04003KT P6SM BKN180=



000
FTUS42 KRAH 190846 AAA
TAFGSO
TAF AMD
KGSO 190846Z 1909/2006 34003KT P6SM BKN060
     FM191200 34006KT P6SM SCT250
     FM200400 08003KT P6SM OVC120=



000
FTUS42 KRAH 190522
TAFRWI
TAF
KRWI 190522Z 1906/2006 VRB02KT P6SM OVC070
     FM191400 03005KT P6SM FEW060
     FM200500 03003KT P6SM BKN150=



000
FTUS42 KRAH 190522
TAFFAY
TAF
KFAY 190522Z 1906/2006 VRB02KT P6SM OVC070
     FM191300 01004KT P6SM FEW060
     FM200400 07003KT P6SM OVC150=



000
FTUS42 KRAH 190522
TAFRDU
TAF
KRDU 190522Z 1906/2006 VRB02KT P6SM BKN070
     FM191300 34005KT P6SM FEW050
     FM200500 04003KT P6SM BKN180=



000
FTUS42 KRAH 190522
TAFFAY
TAF
KFAY 190522Z 1906/2006 VRB02KT P6SM OVC070
     FM191300 01004KT P6SM FEW060
     FM200400 07003KT P6SM OVC150=



000
FTUS42 KRAH 190522
TAFINT
TAF
KINT 190522Z 1906/2006 34004KT P6SM BKN060
     FM191200 34006KT P6SM SCT250
     FM200400 08003KT P6SM OVC120=



000
FTUS42 KRAH 190522
TAFRDU
TAF
KRDU 190522Z 1906/2006 VRB02KT P6SM BKN070
     FM191300 34005KT P6SM FEW050
     FM200500 04003KT P6SM BKN180=



000
FTUS42 KRAH 190522
TAFRWI
TAF
KRWI 190522Z 1906/2006 VRB02KT P6SM OVC070
     FM191400 03005KT P6SM FEW060
     FM200500 03003KT P6SM BKN150=



000
FTUS42 KRAH 190522
TAFGSO
TAF
KGSO 190522Z 1906/2006 34004KT P6SM BKN060
     FM191200 34006KT P6SM SCT250
     FM200400 08003KT P6SM OVC120=



000
FTUS42 KRAH 190522
TAFINT
TAF
KINT 190522Z 1906/2006 34004KT P6SM BKN060
     FM191200 34006KT P6SM SCT250
     FM200400 08003KT P6SM OVC120=



000
FTUS42 KRAH 190522
TAFGSO
TAF
KGSO 190522Z 1906/2006 34004KT P6SM BKN060
     FM191200 34006KT P6SM SCT250
     FM200400 08003KT P6SM OVC120=



000
FTUS42 KRAH 182320
TAFRDU
TAF
KRDU 182320Z 1900/1924 VRB05KT P6SM BKN080=



000
FTUS42 KRAH 182320
TAFFAY
TAF
KFAY 182320Z 1900/1924 VRB05KT P6SM BKN080=



000
FTUS42 KRAH 182320
TAFINT
TAF
KINT 182320Z 1900/1924 VRB05KT P6SM BKN080=



000
FTUS42 KRAH 182320
TAFINT
TAF
KINT 182320Z 1900/1924 VRB05KT P6SM BKN080=



000
FTUS42 KRAH 182320
TAFGSO
TAF
KGSO 182320Z 1900/1924 VRB05KT P6SM BKN080=



000
FTUS42 KRAH 182320
TAFFAY
TAF
KFAY 182320Z 1900/1924 VRB05KT P6SM BKN080=



000
FTUS42 KRAH 182320
TAFRDU
TAF
KRDU 182320Z 1900/1924 VRB05KT P6SM BKN080=



000
FTUS42 KRAH 182320
TAFGSO
TAF
KGSO 182320Z 1900/1924 VRB05KT P6SM BKN080=



000
FTUS42 KRAH 182320
TAFRWI
TAF
KRWI 182320Z 1900/1924 VRB05KT P6SM BKN080=



000
FTUS42 KRAH 181728
TAFRWI
TAF
KRWI 181728Z 1818/1918 VRB02KT P6SM SCT070 BKN100
     FM191300 35003KT P6SM SCT250=



000
FTUS42 KRAH 181728
TAFFAY
TAF
KFAY 181728Z 1818/1918 02006KT P6SM FEW070 SCT100
     FM190000 01004KT P6SM SCT250=



000
FTUS42 KRAH 181728
TAFGSO
TAF
KGSO 181728Z 1818/1918 VRB03KT P6SM SCT070 BKN100
     FM191300 34004KT P6SM SCT250=



000
FTUS42 KRAH 181728
TAFINT
TAF
KINT 181728Z 1818/1918 VRB03KT P6SM SCT070 BKN100
     FM191300 34004KT P6SM SCT250=



000
FTUS42 KRAH 181728
TAFRDU
TAF
KRDU 181728Z 1818/1918 VRB02KT P6SM SCT070 BKN100
     FM191300 35003KT P6SM SCT250=



000
FTUS42 KRAH 181728
TAFGSO
TAF
KGSO 181728Z 1818/1918 VRB03KT P6SM SCT070 BKN100
     FM191300 34004KT P6SM SCT250=



000
FTUS42 KRAH 181728
TAFINT
TAF
KINT 181728Z 1818/1918 VRB03KT P6SM SCT070 BKN100
     FM191300 34004KT P6SM SCT250=



000
FTUS42 KRAH 181728
TAFFAY
TAF
KFAY 181728Z 1818/1918 02006KT P6SM FEW070 SCT100
     FM190000 01004KT P6SM SCT250=



000
FTUS42 KRAH 181728
TAFRWI
TAF
KRWI 181728Z 1818/1918 VRB02KT P6SM SCT070 BKN100
     FM191300 35003KT P6SM SCT250=



000
FTUS42 KRAH 181728
TAFRDU
TAF
KRDU 181728Z 1818/1918 VRB02KT P6SM SCT070 BKN100
     FM191300 35003KT P6SM SCT250=



    US Dept of Commerce
    National Oceanic and Atmospheric Administration
    National Weather Service
    1325 East West Highway
    Silver Spring, MD 20910
    Page Author: NWS Internet Services Team
Disclaimer
Information Quality
Credits
Glossary
Privacy Policy
Freedom of Information Act (FOIA)
About Us
Career Opportunities